sensor_id;sensor_type;location;lat;lon;timestamp;temperature;humidity
6102;DHT22;3081;50.584;7.032;2023-07-31T00:01:48;18.00;99.90
6102;DHT22;3081;50.584;7.032;2023-07-31T00:04:15;17.90;99.90
6102;DHT22;3081;50.584;7.032;2023-07-31T00:06:42;17.90;99.90
6102;DHT22;3081;50.584;7.032;2023-07-31T00:09:10;17.90;99.90
6102;DHT22;3081;50.584;7.032;2023-07-31T00:11:37;17.90;99.90
6102;DHT22;3081;50.584;7.032;2023-07-31T00:14:04;17.80;99.90
6102;DHT22;3081;50.584;7.032;2023-07-31T00:16:30;17.90;99.90
6102;DHT22;3081;50.584;7.032;2023-07-31T00:18:57;17.90;99.90
6102;DHT22;3081;50.584;7.032;2023-07-31T00:21:24;17.80;99.90
6102;DHT22;3081;50.584;7.032;2023-07-31T00:23:51;17.80;99.90
6102;DHT22;3081;50.584;7.032;2023-07-31T00:26:20;17.80;99.90
6102;DHT22;3081;50.584;7.032;2023-07-31T00:28:46;17.80;99.90
6102;DHT22;3081;50.584;7.032;2023-07-31T00:31:13;17.80;99.90
6102;DHT22;3081;50.584;7.032;2023-07-31T00:33:40;17.80;99.90
6102;DHT22;3081;50.584;7.032;2023-07-31T00:36:07;17.80;99.90
6102;DHT22;3081;50.584;7.032;2023-07-31T00:38:34;17.70;99.90
6102;DHT22;3081;50.584;7.032;2023-07-31T00:41:01;17.70;99.90
6102;DHT22;3081;50.584;7.032;2023-07-31T00:43:29;17.70;99.90
6102;DHT22;3081;50.584;7.032;2023-07-31T00:45:56;17.70;99.90
6102;DHT22;3081;50.584;7.032;2023-07-31T00:48:23;17.70;99.90
6102;DHT22;3081;50.584;7.032;2023-07-31T00:50:50;17.70;99.90
6102;DHT22;3081;50.584;7.032;2023-07-31T00:53:17;17.70;99.90
6102;DHT22;3081;50.584;7.032;2023-07-31T00:55:44;17.70;99.90
6102;DHT22;3081;50.584;7.032;2023-07-31T00:58:11;17.70;99.90
6102;DHT22;3081;50.584;7.032;2023-07-31T01:00:40;17.70;99.90
6102;DHT22;3081;50.584;7.032;2023-07-31T01:03:07;17.70;99.90
6102;DHT22;3081;50.584;7.032;2023-07-31T01:05:42;17.70;99.90
6102;DHT22;3081;50.584;7.032;2023-07-31T01:08:15;17.70;99.90
6102;DHT22;3081;50.584;7.032;2023-07-31T01:10:51;17.70;99.90
6102;DHT22;3081;50.584;7.032;2023-07-31T01:13:21;17.80;99.90
6102;DHT22;3081;50.584;7.032;2023-07-31T01:15:49;17.80;99.90
6102;DHT22;3081;50.584;7.032;2023-07-31T01:18:16;17.70;99.90
6102;DHT22;3081;50.584;7.032;2023-07-31T01:20:47;17.80;99.90
6102;DHT22;3081;50.584;7.032;2023-07-31T01:23:35;17.80;99.90
6102;DHT22;3081;50.584;7.032;2023-07-31T01:26:11;17.80;99.90
6102;DHT22;3081;50.584;7.032;2023-07-31T01:28:55;17.70;99.90
6102;DHT22;3081;50.584;7.032;2023-07-31T01:31:24;17.70;99.90
6102;DHT22;3081;50.584;7.032;2023-07-31T01:33:53;17.70;99.90
6102;DHT22;3081;50.584;7.032;2023-07-31T01:36:21;17.70;99.90
6102;DHT22;3081;50.584;7.032;2023-07-31T01:38:48;17.70;99.90
6102;DHT22;3081;50.584;7.032;2023-07-31T01:41:18;17.80;99.90
6102;DHT22;3081;50.584;7.032;2023-07-31T01:43:45;17.80;99.90
6102;DHT22;3081;50.584;7.032;2023-07-31T01:46:12;17.80;99.90
6102;DHT22;3081;50.584;7.032;2023-07-31T01:48:39;17.80;99.90
6102;DHT22;3081;50.584;7.032;2023-07-31T01:51:06;17.80;99.90
6102;DHT22;3081;50.584;7.032;2023-07-31T01:53:33;17.80;99.90
6102;DHT22;3081;50.584;7.032;2023-07-31T01:55:59;17.80;99.90
6102;DHT22;3081;50.584;7.032;2023-07-31T01:58:28;17.80;99.90
6102;DHT22;3081;50.584;7.032;2023-07-31T02:00:55;17.80;99.90
6102;DHT22;3081;50.584;7.032;2023-07-31T02:03:22;17.80;99.90
6102;DHT22;3081;50.584;7.032;2023-07-31T02:05:49;17.80;99.90
6102;DHT22;3081;50.584;7.032;2023-07-31T02:08:16;17.80;99.90
6102;DHT22;3081;50.584;7.032;2023-07-31T02:10:43;17.80;99.90
6102;DHT22;3081;50.584;7.032;2023-07-31T02:13:10;17.90;99.90
6102;DHT22;3081;50.584;7.032;2023-07-31T02:15:39;17.90;99.90
6102;DHT22;3081;50.584;7.032;2023-07-31T02:18:05;17.90;99.90
6102;DHT22;3081;50.584;7.032;2023-07-31T02:20:34;17.90;99.90
6102;DHT22;3081;50.584;7.032;2023-07-31T02:23:01;17.90;99.90
6102;DHT22;3081;50.584;7.032;2023-07-31T02:25:28;17.90;99.90
6102;DHT22;3081;50.584;7.032;2023-07-31T02:27:55;17.90;99.90
6102;DHT22;3081;50.584;7.032;2023-07-31T02:30:22;17.90;99.90
6102;DHT22;3081;50.584;7.032;2023-07-31T02:32:50;17.90;99.90
6102;DHT22;3081;50.584;7.032;2023-07-31T02:35:17;17.90;99.90
6102;DHT22;3081;50.584;7.032;2023-07-31T02:37:44;17.90;99.90
6102;DHT22;3081;50.584;7.032;2023-07-31T02:40:11;17.90;99.90
6102;DHT22;3081;50.584;7.032;2023-07-31T02:42:38;17.90;99.90
6102;DHT22;3081;50.584;7.032;2023-07-31T02:45:06;17.90;99.90
6102;DHT22;3081;50.584;7.032;2023-07-31T02:47:33;17.90;99.90
6102;DHT22;3081;50.584;7.032;2023-07-31T02:50:02;17.90;99.90
6102;DHT22;3081;50.584;7.032;2023-07-31T02:52:29;17.90;99.90
6102;DHT22;3081;50.584;7.032;2023-07-31T02:54:56;17.90;99.90
6102;DHT22;3081;50.584;7.032;2023-07-31T02:57:23;17.90;99.90
6102;DHT22;3081;50.584;7.032;2023-07-31T02:59:50;17.90;99.90
6102;DHT22;3081;50.584;7.032;2023-07-31T03:02:17;17.90;99.90
6102;DHT22;3081;50.584;7.032;2023-07-31T03:04:44;18.00;99.90
6102;DHT22;3081;50.584;7.032;2023-07-31T03:07:12;17.90;99.90
6102;DHT22;3081;50.584;7.032;2023-07-31T03:09:39;18.00;99.90
6102;DHT22;3081;50.584;7.032;2023-07-31T03:12:07;17.90;99.90
6102;DHT22;3081;50.584;7.032;2023-07-31T03:14:34;18.00;99.90
6102;DHT22;3081;50.584;7.032;2023-07-31T03:17:01;18.00;99.90
6102;DHT22;3081;50.584;7.032;2023-07-31T03:19:30;18.00;99.90
6102;DHT22;3081;50.584;7.032;2023-07-31T03:21:57;18.00;99.90
6102;DHT22;3081;50.584;7.032;2023-07-31T03:24:26;18.00;99.90
6102;DHT22;3081;50.584;7.032;2023-07-31T03:26:53;17.90;99.90
6102;DHT22;3081;50.584;7.032;2023-07-31T03:29:19;18.00;99.90
6102;DHT22;3081;50.584;7.032;2023-07-31T03:31:46;17.90;99.90
6102;DHT22;3081;50.584;7.032;2023-07-31T03:34:13;17.90;99.90
6102;DHT22;3081;50.584;7.032;2023-07-31T03:36:40;17.90;99.90
6102;DHT22;3081;50.584;7.032;2023-07-31T03:39:07;17.90;99.90
6102;DHT22;3081;50.584;7.032;2023-07-31T03:41:35;17.90;99.90
6102;DHT22;3081;50.584;7.032;2023-07-31T03:44:02;17.90;99.90
6102;DHT22;3081;50.584;7.032;2023-07-31T03:46:29;17.90;99.90
6102;DHT22;3081;50.584;7.032;2023-07-31T03:48:56;17.90;99.90
6102;DHT22;3081;50.584;7.032;2023-07-31T03:51:23;17.90;99.90
6102;DHT22;3081;50.584;7.032;2023-07-31T03:53:50;17.90;99.90
6102;DHT22;3081;50.584;7.032;2023-07-31T03:56:17;17.90;99.90
6102;DHT22;3081;50.584;7.032;2023-07-31T03:58:45;18.00;99.90
6102;DHT22;3081;50.584;7.032;2023-07-31T04:01:12;18.00;99.90
6102;DHT22;3081;50.584;7.032;2023-07-31T04:03:39;17.90;99.90
6102;DHT22;3081;50.584;7.032;2023-07-31T04:06:06;17.90;99.90
6102;DHT22;3081;50.584;7.032;2023-07-31T04:08:34;18.00;99.90
6102;DHT22;3081;50.584;7.032;2023-07-31T04:11:00;18.00;99.90
6102;DHT22;3081;50.584;7.032;2023-07-31T04:13:29;18.00;99.90
6102;DHT22;3081;50.584;7.032;2023-07-31T04:15:57;18.00;99.90
6102;DHT22;3081;50.584;7.032;2023-07-31T04:18:25;18.00;99.90
6102;DHT22;3081;50.584;7.032;2023-07-31T04:20:52;18.00;99.90
6102;DHT22;3081;50.584;7.032;2023-07-31T04:23:19;18.00;99.90
6102;DHT22;3081;50.584;7.032;2023-07-31T04:25:46;18.10;99.90
6102;DHT22;3081;50.584;7.032;2023-07-31T04:28:12;18.00;99.90
6102;DHT22;3081;50.584;7.032;2023-07-31T04:30:39;18.00;99.90
6102;DHT22;3081;50.584;7.032;2023-07-31T04:33:08;18.00;99.90
6102;DHT22;3081;50.584;7.032;2023-07-31T04:35:34;18.00;99.90
6102;DHT22;3081;50.584;7.032;2023-07-31T04:38:02;18.10;99.90
6102;DHT22;3081;50.584;7.032;2023-07-31T04:40:29;18.00;99.90
6102;DHT22;3081;50.584;7.032;2023-07-31T04:42:55;18.10;99.90
6102;DHT22;3081;50.584;7.032;2023-07-31T04:45:22;18.10;99.90
6102;DHT22;3081;50.584;7.032;2023-07-31T04:47:49;18.10;99.90
6102;DHT22;3081;50.584;7.032;2023-07-31T04:50:18;18.10;99.90
6102;DHT22;3081;50.584;7.032;2023-07-31T04:52:44;18.00;99.90
6102;DHT22;3081;50.584;7.032;2023-07-31T04:55:11;18.00;99.90
6102;DHT22;3081;50.584;7.032;2023-07-31T04:57:39;18.00;99.90
6102;DHT22;3081;50.584;7.032;2023-07-31T05:00:07;18.00;99.90
6102;DHT22;3081;50.584;7.032;2023-07-31T05:02:34;18.00;99.90
6102;DHT22;3081;50.584;7.032;2023-07-31T05:05:01;18.00;99.90
6102;DHT22;3081;50.584;7.032;2023-07-31T05:07:29;18.20;99.90
6102;DHT22;3081;50.584;7.032;2023-07-31T05:09:56;18.20;99.90
6102;DHT22;3081;50.584;7.032;2023-07-31T05:12:22;18.10;99.90
6102;DHT22;3081;50.584;7.032;2023-07-31T05:14:49;18.10;99.90
6102;DHT22;3081;50.584;7.032;2023-07-31T05:17:16;18.10;99.90
6102;DHT22;3081;50.584;7.032;2023-07-31T05:19:43;18.20;99.90
6102;DHT22;3081;50.584;7.032;2023-07-31T05:22:10;18.20;99.90
6102;DHT22;3081;50.584;7.032;2023-07-31T05:24:38;18.20;99.90
6102;DHT22;3081;50.584;7.032;2023-07-31T05:27:06;18.30;99.90
6102;DHT22;3081;50.584;7.032;2023-07-31T05:29:33;18.30;99.90
6102;DHT22;3081;50.584;7.032;2023-07-31T05:32:00;18.40;99.90
6102;DHT22;3081;50.584;7.032;2023-07-31T05:34:27;18.40;99.90
6102;DHT22;3081;50.584;7.032;2023-07-31T05:36:54;18.50;99.90
6102;DHT22;3081;50.584;7.032;2023-07-31T05:39:20;18.40;99.90
6102;DHT22;3081;50.584;7.032;2023-07-31T05:41:49;18.40;99.90
6102;DHT22;3081;50.584;7.032;2023-07-31T05:44:15;18.50;99.90
6102;DHT22;3081;50.584;7.032;2023-07-31T05:46:42;18.50;99.90
6102;DHT22;3081;50.584;7.032;2023-07-31T05:49:09;18.50;99.90
6102;DHT22;3081;50.584;7.032;2023-07-31T05:51:36;18.50;99.90
6102;DHT22;3081;50.584;7.032;2023-07-31T05:54:03;18.40;99.90
6102;DHT22;3081;50.584;7.032;2023-07-31T05:56:30;18.40;99.90
6102;DHT22;3081;50.584;7.032;2023-07-31T05:59:00;18.50;99.90
6102;DHT22;3081;50.584;7.032;2023-07-31T06:01:28;18.50;99.90
6102;DHT22;3081;50.584;7.032;2023-07-31T06:03:55;18.50;99.90
6102;DHT22;3081;50.584;7.032;2023-07-31T06:06:22;18.50;99.90
6102;DHT22;3081;50.584;7.032;2023-07-31T06:08:49;18.50;99.90
6102;DHT22;3081;50.584;7.032;2023-07-31T06:11:16;18.50;99.90
6102;DHT22;3081;50.584;7.032;2023-07-31T06:13:43;18.50;99.90
6102;DHT22;3081;50.584;7.032;2023-07-31T06:16:14;18.50;99.90
6102;DHT22;3081;50.584;7.032;2023-07-31T06:18:41;18.50;99.90
6102;DHT22;3081;50.584;7.032;2023-07-31T06:21:08;18.50;99.90
6102;DHT22;3081;50.584;7.032;2023-07-31T06:23:35;18.40;99.90
6102;DHT22;3081;50.584;7.032;2023-07-31T06:26:02;18.40;99.90
6102;DHT22;3081;50.584;7.032;2023-07-31T06:28:29;18.30;99.90
6102;DHT22;3081;50.584;7.032;2023-07-31T06:30:57;18.30;99.90
6102;DHT22;3081;50.584;7.032;2023-07-31T06:33:25;18.30;99.90
6102;DHT22;3081;50.584;7.032;2023-07-31T06:35:52;18.40;99.90
6102;DHT22;3081;50.584;7.032;2023-07-31T06:38:22;18.50;99.90
6102;DHT22;3081;50.584;7.032;2023-07-31T06:40:50;18.60;99.90
6102;DHT22;3081;50.584;7.032;2023-07-31T06:43:17;18.70;99.90
6102;DHT22;3081;50.584;7.032;2023-07-31T06:45:44;18.80;99.90
6102;DHT22;3081;50.584;7.032;2023-07-31T06:48:12;18.90;99.90
6102;DHT22;3081;50.584;7.032;2023-07-31T06:50:40;18.90;99.90
6102;DHT22;3081;50.584;7.032;2023-07-31T06:53:07;19.00;99.90
6102;DHT22;3081;50.584;7.032;2023-07-31T06:55:34;19.00;99.90
6102;DHT22;3081;50.584;7.032;2023-07-31T06:58:01;19.00;99.90
6102;DHT22;3081;50.584;7.032;2023-07-31T07:00:28;19.10;99.90
6102;DHT22;3081;50.584;7.032;2023-07-31T07:02:55;19.20;99.90
6102;DHT22;3081;50.584;7.032;2023-07-31T07:05:22;19.30;99.90
6102;DHT22;3081;50.584;7.032;2023-07-31T07:07:50;19.30;99.90
6102;DHT22;3081;50.584;7.032;2023-07-31T07:10:18;19.40;99.90
6102;DHT22;3081;50.584;7.032;2023-07-31T07:12:45;19.60;99.90
6102;DHT22;3081;50.584;7.032;2023-07-31T07:15:12;19.80;99.90
6102;DHT22;3081;50.584;7.032;2023-07-31T07:17:39;19.80;99.90
6102;DHT22;3081;50.584;7.032;2023-07-31T07:20:07;19.90;99.90
6102;DHT22;3081;50.584;7.032;2023-07-31T07:22:34;20.00;99.90
6102;DHT22;3081;50.584;7.032;2023-07-31T07:25:04;20.00;99.90
6102;DHT22;3081;50.584;7.032;2023-07-31T07:27:32;20.00;99.90
6102;DHT22;3081;50.584;7.032;2023-07-31T07:29:59;20.00;99.90
6102;DHT22;3081;50.584;7.032;2023-07-31T07:32:26;19.90;99.90
6102;DHT22;3081;50.584;7.032;2023-07-31T07:34:53;19.80;99.90
6102;DHT22;3081;50.584;7.032;2023-07-31T07:37:21;19.70;99.90
6102;DHT22;3081;50.584;7.032;2023-07-31T07:39:48;19.30;99.90
6102;DHT22;3081;50.584;7.032;2023-07-31T07:42:17;19.00;99.90
6102;DHT22;3081;50.584;7.032;2023-07-31T07:44:44;18.70;99.90
6102;DHT22;3081;50.584;7.032;2023-07-31T07:47:11;18.50;99.90
6102;DHT22;3081;50.584;7.032;2023-07-31T07:49:38;18.40;99.90
6102;DHT22;3081;50.584;7.032;2023-07-31T07:52:05;18.40;99.90
6102;DHT22;3081;50.584;7.032;2023-07-31T07:54:32;18.40;99.90
6102;DHT22;3081;50.584;7.032;2023-07-31T07:56:59;18.40;99.90
6102;DHT22;3081;50.584;7.032;2023-07-31T07:59:27;18.40;99.90
6102;DHT22;3081;50.584;7.032;2023-07-31T08:01:54;18.50;99.90
6102;DHT22;3081;50.584;7.032;2023-07-31T08:04:22;18.40;99.90
6102;DHT22;3081;50.584;7.032;2023-07-31T08:06:49;18.60;99.90
6102;DHT22;3081;50.584;7.032;2023-07-31T08:09:16;18.70;99.90
6102;DHT22;3081;50.584;7.032;2023-07-31T08:11:43;18.50;99.90
6102;DHT22;3081;50.584;7.032;2023-07-31T08:14:10;18.00;99.90
6102;DHT22;3081;50.584;7.032;2023-07-31T08:16:38;17.70;99.90
6102;DHT22;3081;50.584;7.032;2023-07-31T08:19:05;17.70;99.90
6102;DHT22;3081;50.584;7.032;2023-07-31T08:21:32;17.70;99.90
6102;DHT22;3081;50.584;7.032;2023-07-31T08:23:59;17.80;99.90
6102;DHT22;3081;50.584;7.032;2023-07-31T08:26:26;17.90;99.90
6102;DHT22;3081;50.584;7.032;2023-07-31T08:28:53;18.00;99.90
6102;DHT22;3081;50.584;7.032;2023-07-31T08:31:20;18.00;99.90
6102;DHT22;3081;50.584;7.032;2023-07-31T08:33:48;18.20;99.90
6102;DHT22;3081;50.584;7.032;2023-07-31T08:36:15;18.40;99.90
6102;DHT22;3081;50.584;7.032;2023-07-31T08:38:42;18.50;99.90
6102;DHT22;3081;50.584;7.032;2023-07-31T08:41:09;18.70;99.90
6102;DHT22;3081;50.584;7.032;2023-07-31T08:43:36;18.80;99.90
6102;DHT22;3081;50.584;7.032;2023-07-31T08:46:05;18.90;99.90
6102;DHT22;3081;50.584;7.032;2023-07-31T08:48:32;19.10;99.90
6102;DHT22;3081;50.584;7.032;2023-07-31T08:51:00;19.00;99.90
6102;DHT22;3081;50.584;7.032;2023-07-31T08:53:27;19.10;99.90
6102;DHT22;3081;50.584;7.032;2023-07-31T08:55:55;19.20;99.90
6102;DHT22;3081;50.584;7.032;2023-07-31T08:58:24;19.20;99.90
6102;DHT22;3081;50.584;7.032;2023-07-31T09:00:52;19.30;99.90
6102;DHT22;3081;50.584;7.032;2023-07-31T09:03:23;19.40;99.90
6102;DHT22;3081;50.584;7.032;2023-07-31T09:05:51;19.60;99.90
6102;DHT22;3081;50.584;7.032;2023-07-31T09:08:21;19.70;99.90
6102;DHT22;3081;50.584;7.032;2023-07-31T09:10:48;19.80;99.90
6102;DHT22;3081;50.584;7.032;2023-07-31T09:13:16;19.90;99.90
6102;DHT22;3081;50.584;7.032;2023-07-31T09:15:44;20.00;99.90
6102;DHT22;3081;50.584;7.032;2023-07-31T09:18:11;20.10;99.90
6102;DHT22;3081;50.584;7.032;2023-07-31T09:20:39;20.10;99.90
6102;DHT22;3081;50.584;7.032;2023-07-31T09:23:08;20.20;99.90
6102;DHT22;3081;50.584;7.032;2023-07-31T09:25:37;20.40;99.90
6102;DHT22;3081;50.584;7.032;2023-07-31T09:28:07;20.40;99.90
6102;DHT22;3081;50.584;7.032;2023-07-31T09:30:45;20.50;99.90
6102;DHT22;3081;50.584;7.032;2023-07-31T09:33:13;20.60;99.90
6102;DHT22;3081;50.584;7.032;2023-07-31T09:35:40;20.60;99.90
6102;DHT22;3081;50.584;7.032;2023-07-31T09:38:09;20.70;99.90
6102;DHT22;3081;50.584;7.032;2023-07-31T09:40:38;20.70;99.90
6102;DHT22;3081;50.584;7.032;2023-07-31T09:43:08;20.90;99.90
6102;DHT22;3081;50.584;7.032;2023-07-31T09:45:37;21.00;99.90
6102;DHT22;3081;50.584;7.032;2023-07-31T09:48:07;21.20;99.90
6102;DHT22;3081;50.584;7.032;2023-07-31T09:50:36;21.10;99.90
6102;DHT22;3081;50.584;7.032;2023-07-31T09:53:03;21.10;99.90
6102;DHT22;3081;50.584;7.032;2023-07-31T09:55:30;21.30;99.90
6102;DHT22;3081;50.584;7.032;2023-07-31T09:57:59;21.70;99.90
6102;DHT22;3081;50.584;7.032;2023-07-31T10:00:30;21.90;99.90
6102;DHT22;3081;50.584;7.032;2023-07-31T10:02:59;21.90;99.90
6102;DHT22;3081;50.584;7.032;2023-07-31T10:05:31;22.00;99.90
6102;DHT22;3081;50.584;7.032;2023-07-31T10:07:58;22.00;99.90
6102;DHT22;3081;50.584;7.032;2023-07-31T10:10:26;22.20;99.90
6102;DHT22;3081;50.584;7.032;2023-07-31T10:12:54;22.40;99.90
6102;DHT22;3081;50.584;7.032;2023-07-31T10:15:24;22.70;99.90
6102;DHT22;3081;50.584;7.032;2023-07-31T10:17:52;23.00;99.90
6102;DHT22;3081;50.584;7.032;2023-07-31T10:20:21;23.40;99.90
6102;DHT22;3081;50.584;7.032;2023-07-31T10:22:48;24.10;99.90
6102;DHT22;3081;50.584;7.032;2023-07-31T10:25:16;24.10;99.90
6102;DHT22;3081;50.584;7.032;2023-07-31T10:27:45;24.40;99.90
6102;DHT22;3081;50.584;7.032;2023-07-31T10:30:15;24.40;99.90
6102;DHT22;3081;50.584;7.032;2023-07-31T10:32:44;24.80;99.90
6102;DHT22;3081;50.584;7.032;2023-07-31T10:35:12;25.10;99.90
6102;DHT22;3081;50.584;7.032;2023-07-31T10:37:40;25.00;99.90
6102;DHT22;3081;50.584;7.032;2023-07-31T10:40:11;25.40;99.90
6102;DHT22;3081;50.584;7.032;2023-07-31T10:42:45;26.10;99.90
6102;DHT22;3081;50.584;7.032;2023-07-31T10:45:13;26.20;99.90
6102;DHT22;3081;50.584;7.032;2023-07-31T10:47:45;26.00;99.90
6102;DHT22;3081;50.584;7.032;2023-07-31T10:50:15;26.30;99.90
6102;DHT22;3081;50.584;7.032;2023-07-31T10:52:46;25.80;99.90
6102;DHT22;3081;50.584;7.032;2023-07-31T10:55:15;26.00;99.90
6102;DHT22;3081;50.584;7.032;2023-07-31T10:57:44;26.50;99.90
6102;DHT22;3081;50.584;7.032;2023-07-31T11:00:20;26.80;99.90
6102;DHT22;3081;50.584;7.032;2023-07-31T11:02:59;26.70;99.90
6102;DHT22;3081;50.584;7.032;2023-07-31T11:05:43;26.10;99.90
6102;DHT22;3081;50.584;7.032;2023-07-31T11:08:14;25.80;99.90
6102;DHT22;3081;50.584;7.032;2023-07-31T11:10:42;25.60;99.90
6102;DHT22;3081;50.584;7.032;2023-07-31T11:13:09;25.40;99.90
6102;DHT22;3081;50.584;7.032;2023-07-31T11:15:36;25.50;99.90
6102;DHT22;3081;50.584;7.032;2023-07-31T11:18:04;25.60;99.90
6102;DHT22;3081;50.584;7.032;2023-07-31T11:20:34;25.70;99.90
6102;DHT22;3081;50.584;7.032;2023-07-31T11:23:02;25.40;99.90
6102;DHT22;3081;50.584;7.032;2023-07-31T11:25:30;24.90;99.90
6102;DHT22;3081;50.584;7.032;2023-07-31T11:28:01;24.90;99.90
6102;DHT22;3081;50.584;7.032;2023-07-31T11:30:28;24.60;99.90
6102;DHT22;3081;50.584;7.032;2023-07-31T11:32:55;24.50;99.90
6102;DHT22;3081;50.584;7.032;2023-07-31T11:35:24;24.90;99.90
6102;DHT22;3081;50.584;7.032;2023-07-31T11:37:50;25.00;99.90
6102;DHT22;3081;50.584;7.032;2023-07-31T11:40:18;24.90;99.90
6102;DHT22;3081;50.584;7.032;2023-07-31T11:42:45;24.40;99.90
6102;DHT22;3081;50.584;7.032;2023-07-31T11:45:12;24.40;99.90
6102;DHT22;3081;50.584;7.032;2023-07-31T11:47:39;24.70;99.90
6102;DHT22;3081;50.584;7.032;2023-07-31T11:50:10;25.40;99.90
6102;DHT22;3081;50.584;7.032;2023-07-31T11:52:42;26.00;99.90
6102;DHT22;3081;50.584;7.032;2023-07-31T11:55:10;26.50;99.90
6102;DHT22;3081;50.584;7.032;2023-07-31T11:57:39;26.50;99.90
6102;DHT22;3081;50.584;7.032;2023-07-31T12:00:07;26.30;99.90
6102;DHT22;3081;50.584;7.032;2023-07-31T12:02:36;26.40;99.90
6102;DHT22;3081;50.584;7.032;2023-07-31T12:05:05;26.40;99.90
6102;DHT22;3081;50.584;7.032;2023-07-31T12:07:48;26.90;99.90
6102;DHT22;3081;50.584;7.032;2023-07-31T12:10:29;27.70;99.90
6102;DHT22;3081;50.584;7.032;2023-07-31T12:13:00;27.90;99.90
6102;DHT22;3081;50.584;7.032;2023-07-31T12:15:35;28.10;99.90
6102;DHT22;3081;50.584;7.032;2023-07-31T12:18:05;28.40;99.90
6102;DHT22;3081;50.584;7.032;2023-07-31T12:20:32;27.90;99.90
6102;DHT22;3081;50.584;7.032;2023-07-31T12:23:01;27.60;99.90
6102;DHT22;3081;50.584;7.032;2023-07-31T12:25:33;27.20;99.90
6102;DHT22;3081;50.584;7.032;2023-07-31T12:28:05;26.90;99.90
6102;DHT22;3081;50.584;7.032;2023-07-31T12:30:38;26.70;99.90
6102;DHT22;3081;50.584;7.032;2023-07-31T12:33:06;26.70;99.90
6102;DHT22;3081;50.584;7.032;2023-07-31T12:35:41;26.70;99.90
6102;DHT22;3081;50.584;7.032;2023-07-31T12:38:11;26.20;99.90
6102;DHT22;3081;50.584;7.032;2023-07-31T12:40:38;25.70;99.90
6102;DHT22;3081;50.584;7.032;2023-07-31T12:43:06;25.60;99.90
6102;DHT22;3081;50.584;7.032;2023-07-31T12:45:33;25.50;99.90
6102;DHT22;3081;50.584;7.032;2023-07-31T12:48:00;25.50;99.90
6102;DHT22;3081;50.584;7.032;2023-07-31T12:50:27;25.50;99.90
6102;DHT22;3081;50.584;7.032;2023-07-31T12:52:54;25.10;99.90
6102;DHT22;3081;50.584;7.032;2023-07-31T12:55:23;24.80;99.90
6102;DHT22;3081;50.584;7.032;2023-07-31T12:57:50;24.60;99.90
6102;DHT22;3081;50.584;7.032;2023-07-31T13:00:17;24.50;99.90
6102;DHT22;3081;50.584;7.032;2023-07-31T13:02:44;24.50;99.90
6102;DHT22;3081;50.584;7.032;2023-07-31T13:05:11;24.40;99.90
6102;DHT22;3081;50.584;7.032;2023-07-31T13:07:38;24.40;99.90
6102;DHT22;3081;50.584;7.032;2023-07-31T13:10:07;23.90;99.90
6102;DHT22;3081;50.584;7.032;2023-07-31T13:12:35;23.50;99.90
6102;DHT22;3081;50.584;7.032;2023-07-31T13:15:03;23.30;99.90
6102;DHT22;3081;50.584;7.032;2023-07-31T13:17:29;23.40;99.90
6102;DHT22;3081;50.584;7.032;2023-07-31T13:19:56;23.60;99.90
6102;DHT22;3081;50.584;7.032;2023-07-31T13:22:23;23.60;99.90
6102;DHT22;3081;50.584;7.032;2023-07-31T13:24:50;23.40;99.90
6102;DHT22;3081;50.584;7.032;2023-07-31T13:27:17;23.60;99.90
6102;DHT22;3081;50.584;7.032;2023-07-31T13:29:48;23.80;99.90
6102;DHT22;3081;50.584;7.032;2023-07-31T13:32:16;24.20;99.90
6102;DHT22;3081;50.584;7.032;2023-07-31T13:34:43;24.40;99.90
6102;DHT22;3081;50.584;7.032;2023-07-31T13:37:10;24.60;99.90
6102;DHT22;3081;50.584;7.032;2023-07-31T13:39:37;24.80;99.90
6102;DHT22;3081;50.584;7.032;2023-07-31T13:42:04;24.70;99.90
6102;DHT22;3081;50.584;7.032;2023-07-31T13:44:32;24.80;99.90
6102;DHT22;3081;50.584;7.032;2023-07-31T13:47:01;24.80;99.90
6102;DHT22;3081;50.584;7.032;2023-07-31T13:49:28;24.60;99.90
6102;DHT22;3081;50.584;7.032;2023-07-31T13:51:55;24.40;99.90
6102;DHT22;3081;50.584;7.032;2023-07-31T13:54:22;24.70;99.90
6102;DHT22;3081;50.584;7.032;2023-07-31T13:56:49;25.40;99.90
6102;DHT22;3081;50.584;7.032;2023-07-31T13:59:16;25.50;99.90
6102;DHT22;3081;50.584;7.032;2023-07-31T14:01:44;25.40;99.90
6102;DHT22;3081;50.584;7.032;2023-07-31T14:04:12;25.20;99.90
6102;DHT22;3081;50.584;7.032;2023-07-31T14:06:39;25.20;99.90
6102;DHT22;3081;50.584;7.032;2023-07-31T14:09:06;25.20;99.90
6102;DHT22;3081;50.584;7.032;2023-07-31T14:11:33;25.50;99.90
6102;DHT22;3081;50.584;7.032;2023-07-31T14:14:00;25.50;99.90
6102;DHT22;3081;50.584;7.032;2023-07-31T14:16:28;24.80;99.90
6102;DHT22;3081;50.584;7.032;2023-07-31T14:18:55;23.80;99.90
6102;DHT22;3081;50.584;7.032;2023-07-31T14:21:26;23.60;99.90
6102;DHT22;3081;50.584;7.032;2023-07-31T14:23:53;23.20;99.90
6102;DHT22;3081;50.584;7.032;2023-07-31T14:26:20;22.80;99.90
6102;DHT22;3081;50.584;7.032;2023-07-31T14:28:46;22.50;99.90
6102;DHT22;3081;50.584;7.032;2023-07-31T14:31:13;22.10;99.90
6102;DHT22;3081;50.584;7.032;2023-07-31T14:33:41;21.90;99.90
6102;DHT22;3081;50.584;7.032;2023-07-31T14:36:08;21.80;99.90
6102;DHT22;3081;50.584;7.032;2023-07-31T14:38:36;21.80;99.90
6102;DHT22;3081;50.584;7.032;2023-07-31T14:41:03;21.70;99.90
6102;DHT22;3081;50.584;7.032;2023-07-31T14:43:30;21.80;99.90
6102;DHT22;3081;50.584;7.032;2023-07-31T14:45:57;21.90;99.90
6102;DHT22;3081;50.584;7.032;2023-07-31T14:48:25;22.10;99.90
6102;DHT22;3081;50.584;7.032;2023-07-31T14:50:52;22.20;99.90
6102;DHT22;3081;50.584;7.032;2023-07-31T14:53:19;22.30;99.90
6102;DHT22;3081;50.584;7.032;2023-07-31T14:55:48;22.30;99.90
6102;DHT22;3081;50.584;7.032;2023-07-31T14:58:15;22.20;99.90
6102;DHT22;3081;50.584;7.032;2023-07-31T15:00:42;22.10;99.90
6102;DHT22;3081;50.584;7.032;2023-07-31T15:03:09;22.00;99.90
6102;DHT22;3081;50.584;7.032;2023-07-31T15:05:36;21.90;99.90
6102;DHT22;3081;50.584;7.032;2023-07-31T15:08:03;21.90;99.90
6102;DHT22;3081;50.584;7.032;2023-07-31T15:10:30;22.00;99.90
6102;DHT22;3081;50.584;7.032;2023-07-31T15:12:59;21.80;99.90
6102;DHT22;3081;50.584;7.032;2023-07-31T15:15:27;21.70;99.90
6102;DHT22;3081;50.584;7.032;2023-07-31T15:17:53;21.70;99.90
6102;DHT22;3081;50.584;7.032;2023-07-31T15:20:21;21.70;99.90
6102;DHT22;3081;50.584;7.032;2023-07-31T15:22:47;21.50;99.90
6102;DHT22;3081;50.584;7.032;2023-07-31T15:25:15;21.40;99.90
6102;DHT22;3081;50.584;7.032;2023-07-31T15:27:42;21.50;99.90
6102;DHT22;3081;50.584;7.032;2023-07-31T15:30:10;21.50;99.90
6102;DHT22;3081;50.584;7.032;2023-07-31T15:32:38;21.40;99.90
6102;DHT22;3081;50.584;7.032;2023-07-31T15:35:06;21.40;99.90
6102;DHT22;3081;50.584;7.032;2023-07-31T15:37:32;21.40;99.90
6102;DHT22;3081;50.584;7.032;2023-07-31T15:39:59;21.20;99.90
6102;DHT22;3081;50.584;7.032;2023-07-31T15:42:26;21.10;99.90
6102;DHT22;3081;50.584;7.032;2023-07-31T15:44:53;20.90;99.90
6102;DHT22;3081;50.584;7.032;2023-07-31T15:47:21;20.80;99.90
6102;DHT22;3081;50.584;7.032;2023-07-31T15:49:48;20.70;99.90
6102;DHT22;3081;50.584;7.032;2023-07-31T15:52:15;20.40;99.90
6102;DHT22;3081;50.584;7.032;2023-07-31T15:54:42;20.20;99.90
6102;DHT22;3081;50.584;7.032;2023-07-31T15:57:09;20.10;99.90
6102;DHT22;3081;50.584;7.032;2023-07-31T15:59:36;20.00;99.90
6102;DHT22;3081;50.584;7.032;2023-07-31T16:02:03;20.00;99.90
6102;DHT22;3081;50.584;7.032;2023-07-31T16:04:32;20.00;99.90
6102;DHT22;3081;50.584;7.032;2023-07-31T16:06:59;20.00;99.90